Time;durP1;ratioP1;P1;durP2;ratioP2;P2;SDS_P1;SDS_P2;PMS_P1;PMS_P2;Temp;Humidity;BMP_temperature;BMP_pressure;BME280_temperature;BME280_humidity;BME280_pressure;Samples;Min_cycle;Max_cycle;Signal;HPM_P1;HPM_P2
2021/04/07 00:01:54;;;;;;;4.20;2.67;;;1.10;99.90;;;;;;4995398;28;21361;-49
2021/04/07 00:04:21;;;;;;;2.67;2.40;;;1.20;99.90;;;;;;4994988;28;20461;-49
2021/04/07 00:06:47;;;;;;;5.83;2.60;;;1.30;99.90;;;;;;4993344;28;20567;-49
2021/04/07 00:09:15;;;;;;;2.80;2.43;;;1.30;99.90;;;;;;4993917;28;20446;-49
2021/04/07 00:11:41;;;;;;;2.87;2.47;;;1.30;99.90;;;;;;4994042;28;20474;-49
2021/04/07 00:14:10;;;;;;;2.60;2.40;;;1.40;99.90;;;;;;4994533;28;20450;-49
2021/04/07 00:16:37;;;;;;;3.00;2.60;;;1.40;99.90;;;;;;4992093;28;20490;-49
2021/04/07 00:19:06;;;;;;;2.80;2.33;;;1.20;99.90;;;;;;4993384;28;20467;-49
2021/04/07 00:21:33;;;;;;;2.87;2.67;;;1.10;99.90;;;;;;4993361;28;21020;-49
2021/04/07 00:24:00;;;;;;;3.17;2.60;;;1.30;99.90;;;;;;4994230;28;20446;-50
2021/04/07 00:26:27;;;;;;;3.73;3.20;;;1.20;99.90;;;;;;4991354;28;20470;-49
2021/04/07 00:28:53;;;;;;;4.50;3.10;;;1.10;99.90;;;;;;4992436;28;20474;-49
2021/04/07 00:31:20;;;;;;;4.40;3.10;;;1.10;99.90;;;;;;4999278;28;20455;-49
2021/04/07 00:33:46;;;;;;;3.83;3.20;;;1.20;99.90;;;;;;4994081;28;20466;-50
2021/04/07 00:36:13;;;;;;;4.30;3.10;;;1.30;99.90;;;;;;4991015;28;20466;-49
2021/04/07 00:38:39;;;;;;;5.82;3.90;;;1.30;99.90;;;;;;4993221;28;20448;-48
2021/04/07 00:41:06;;;;;;;3.20;2.70;;;1.50;99.90;;;;;;4992889;28;20214;-49
2021/04/07 00:43:33;;;;;;;4.73;3.20;;;1.30;99.90;;;;;;4994411;28;20479;-49
2021/04/07 00:46:00;;;;;;;3.40;3.10;;;1.30;99.90;;;;;;4992721;28;20467;-49
2021/04/07 00:48:27;;;;;;;4.00;3.03;;;1.30;99.90;;;;;;4994615;28;20833;-48
2021/04/07 00:50:53;;;;;;;5.53;3.53;;;1.20;99.90;;;;;;4993635;28;21902;-49
2021/04/07 00:53:20;;;;;;;5.80;3.37;;;1.40;99.90;;;;;;4995782;28;20477;-49
2021/04/07 00:55:46;;;;;;;3.73;3.03;;;1.20;99.90;;;;;;4993841;28;20471;-49
2021/04/07 00:58:14;;;;;;;4.10;3.40;;;1.20;99.90;;;;;;4992914;28;20624;-49
2021/04/07 01:00:42;;;;;;;3.20;2.83;;;1.20;99.90;;;;;;4990855;28;21155;-49
2021/04/07 01:03:12;;;;;;;4.57;3.27;;;1.30;99.90;;;;;;4993265;28;20898;-49
2021/04/07 01:05:39;;;;;;;3.53;3.20;;;1.10;99.90;;;;;;4990311;28;20470;-49
2021/04/07 01:08:06;;;;;;;3.45;3.13;;;1.20;99.90;;;;;;4992068;28;20471;-49
2021/04/07 01:10:35;;;;;;;5.37;3.10;;;1.30;99.90;;;;;;4992247;28;20246;-49
2021/04/07 01:13:01;;;;;;;4.70;3.00;;;1.30;99.90;;;;;;4993162;28;20983;-49
2021/04/07 01:15:28;;;;;;;4.13;3.70;;;1.20;99.90;;;;;;4991121;28;20560;-49
2021/04/07 01:17:57;;;;;;;3.60;3.00;;;1.00;99.90;;;;;;4993027;28;20540;-49
2021/04/07 01:20:25;;;;;;;4.83;3.00;;;1.00;99.90;;;;;;4991722;28;20466;-49
2021/04/07 01:22:55;;;;;;;5.80;3.20;;;1.30;99.90;;;;;;4992936;28;20517;-49
2021/04/07 01:25:22;;;;;;;4.30;3.50;;;1.30;99.90;;;;;;4990073;28;20471;-49
2021/04/07 01:27:49;;;;;;;5.73;3.67;;;1.10;99.90;;;;;;4991087;28;20462;-50
2021/04/07 01:30:17;;;;;;;8.30;3.50;;;1.20;99.90;;;;;;4991183;28;20466;-49
2021/04/07 01:32:44;;;;;;;3.93;3.00;;;1.40;99.90;;;;;;4991823;28;20509;-49
2021/04/07 01:35:12;;;;;;;3.47;3.10;;;1.40;99.90;;;;;;4991245;28;20476;-49
2021/04/07 01:37:40;;;;;;;5.53;4.10;;;1.30;99.90;;;;;;4992549;28;21034;-49
2021/04/07 01:40:08;;;;;;;3.83;3.40;;;1.20;99.90;;;;;;4991838;28;20458;-49
2021/04/07 01:42:37;;;;;;;4.60;3.23;;;0.90;99.90;;;;;;4991431;28;20505;-49
2021/04/07 01:45:05;;;;;;;4.07;3.37;;;0.80;99.90;;;;;;4989304;28;20474;-49
2021/04/07 01:47:33;;;;;;;4.57;3.70;;;0.80;99.90;;;;;;4990078;28;20448;-49
2021/04/07 01:50:00;;;;;;;7.30;3.97;;;0.80;99.90;;;;;;4991809;28;20466;-49
2021/04/07 01:52:27;;;;;;;4.00;3.57;;;1.00;99.90;;;;;;4992205;28;20927;-49
2021/04/07 01:54:54;;;;;;;5.73;3.97;;;1.00;99.90;;;;;;4989534;28;20462;-49
2021/04/07 01:57:21;;;;;;;4.73;3.60;;;0.90;99.90;;;;;;4992374;28;20485;-49
2021/04/07 01:59:48;;;;;;;9.60;3.70;;;1.00;99.90;;;;;;4990854;28;20465;-49
2021/04/07 02:02:15;;;;;;;4.70;4.20;;;1.10;99.90;;;;;;4991558;28;20491;-49
2021/04/07 02:04:42;;;;;;;7.23;3.80;;;1.00;99.90;;;;;;4989205;28;20512;-49
2021/04/07 02:07:10;;;;;;;3.53;3.23;;;1.10;99.90;;;;;;4991609;28;20443;-49
2021/04/07 02:09:40;;;;;;;4.67;3.83;;;1.10;99.90;;;;;;4987840;28;20475;-49
2021/04/07 02:12:07;;;;;;;4.40;3.50;;;1.20;99.90;;;;;;4990585;28;20494;-49
2021/04/07 02:14:37;;;;;;;4.40;3.37;;;1.00;99.90;;;;;;4990490;28;20493;-50
2021/04/07 02:17:06;;;;;;;7.60;4.00;;;1.10;99.90;;;;;;4972160;28;20541;-49
2021/04/07 02:19:36;;;;;;;6.20;4.00;;;1.00;99.90;;;;;;4972467;28;20886;-50
2021/04/07 02:22:06;;;;;;;5.47;4.10;;;1.10;99.90;;;;;;4989311;28;20471;-49
2021/04/07 02:24:33;;;;;;;6.10;4.40;;;1.10;99.90;;;;;;4990150;28;20466;-50
2021/04/07 02:27:02;;;;;;;6.77;4.30;;;1.20;99.90;;;;;;4990528;28;20462;-49
2021/04/07 02:29:29;;;;;;;5.77;3.97;;;1.20;99.90;;;;;;4990950;28;20565;-49
2021/04/07 02:31:55;;;;;;;5.20;4.10;;;1.20;99.90;;;;;;4991490;28;20905;-49
2021/04/07 02:34:23;;;;;;;7.33;4.37;;;1.20;99.90;;;;;;4985767;28;20518;-49
2021/04/07 02:36:49;;;;;;;4.33;3.67;;;1.20;99.90;;;;;;4988817;28;20486;-49
2021/04/07 02:39:15;;;;;;;5.30;3.73;;;1.30;99.90;;;;;;4990570;28;20462;-49
2021/04/07 02:41:42;;;;;;;6.20;4.20;;;1.20;99.90;;;;;;4990856;28;20580;-49
2021/04/07 02:44:09;;;;;;;5.70;4.50;;;1.20;99.90;;;;;;4990762;28;20477;-49
2021/04/07 02:46:35;;;;;;;7.83;4.60;;;1.10;99.90;;;;;;4990710;28;21003;-49
2021/04/07 02:49:02;;;;;;;6.27;4.43;;;1.10;99.90;;;;;;4991645;28;20473;-49
2021/04/07 02:51:29;;;;;;;6.70;4.50;;;1.20;99.90;;;;;;4990393;28;20525;-49
2021/04/07 02:53:55;;;;;;;4.87;3.93;;;1.10;99.90;;;;;;4991682;28;20892;-49
2021/04/07 02:56:22;;;;;;;6.63;4.93;;;1.00;99.90;;;;;;4989859;28;20471;-49
2021/04/07 02:58:48;;;;;;;5.53;4.20;;;0.90;99.90;;;;;;4993717;28;20986;-49
2021/04/07 03:01:15;;;;;;;6.80;4.40;;;0.90;99.90;;;;;;4993893;28;20467;-49
2021/04/07 03:03:41;;;;;;;6.93;4.27;;;0.90;99.90;;;;;;4994883;28;20490;-49
2021/04/07 03:06:08;;;;;;;5.20;4.00;;;1.00;99.90;;;;;;4994154;28;20490;-50
2021/04/07 03:08:35;;;;;;;6.93;4.03;;;1.00;99.90;;;;;;4995470;28;20451;-49
2021/04/07 03:11:02;;;;;;;4.20;3.80;;;0.90;99.90;;;;;;4994348;28;20470;-49
2021/04/07 03:13:28;;;;;;;5.80;3.93;;;0.90;99.90;;;;;;4995328;28;20458;-49
2021/04/07 03:15:55;;;;;;;4.37;3.50;;;0.50;99.90;;;;;;4993030;28;20470;-49
2021/04/07 03:18:21;;;;;;;6.27;4.60;;;0.30;99.90;;;;;;4994822;28;20552;-49
2021/04/07 03:20:47;;;;;;;6.10;4.37;;;0.10;99.90;;;;;;4994226;28;20473;-49
2021/04/07 03:23:14;;;;;;;6.47;4.47;;;0.10;99.90;;;;;;4995273;28;20532;-49
2021/04/07 03:25:41;;;;;;;5.53;4.07;;;0.10;99.90;;;;;;4993675;28;20466;-49
2021/04/07 03:28:08;;;;;;;6.03;4.40;;;0.30;99.90;;;;;;4995120;28;20469;-49
2021/04/07 03:30:49;;;;;;;6.97;4.37;;;0.40;99.90;;;;;;4992708;28;20469;-49
2021/04/07 03:33:16;;;;;;;6.67;3.90;;;0.30;99.90;;;;;;4993121;28;21022;-49
2021/04/07 03:35:42;;;;;;;3.97;3.43;;;0.30;99.90;;;;;;4992759;28;20520;-49
2021/04/07 03:38:09;;;;;;;3.40;2.90;;;0.20;99.90;;;;;;4993818;28;20486;-49
2021/04/07 03:40:35;;;;;;;5.17;3.30;;;0.20;99.90;;;;;;4994005;28;20474;-49
2021/04/07 03:43:05;;;;;;;3.60;2.83;;;0.20;99.90;;;;;;4994602;28;20852;-49
2021/04/07 03:45:31;;;;;;;4.60;3.27;;;0.40;99.90;;;;;;4992848;28;20473;-49
2021/04/07 03:47:58;;;;;;;4.77;2.57;;;0.30;99.90;;;;;;4993653;28;20602;-49
2021/04/07 03:50:25;;;;;;;3.90;3.07;;;0.30;99.90;;;;;;4994214;28;21022;-49
2021/04/07 03:52:51;;;;;;;2.50;2.30;;;0.00;99.90;;;;;;4994756;28;20473;-49
2021/04/07 03:55:18;;;;;;;4.60;2.63;;;0.00;99.90;;;;;;4991923;28;20466;-49
2021/04/07 03:57:44;;;;;;;4.30;3.10;;;-0.20;99.90;;;;;;4994464;28;20482;-49
2021/04/07 04:00:13;;;;;;;3.80;3.00;;;-0.30;99.90;;;;;;4988902;28;20469;-49
2021/04/07 04:02:39;;;;;;;3.67;3.10;;;-0.20;99.90;;;;;;4986002;28;20521;-49
2021/04/07 04:05:07;;;;;;;4.20;3.30;;;-0.20;99.90;;;;;;4986198;28;20474;-49
2021/04/07 04:07:34;;;;;;;3.60;2.93;;;-0.10;99.90;;;;;;4985251;28;20457;-48
2021/04/07 04:10:00;;;;;;;4.97;3.60;;;-0.10;99.90;;;;;;4985259;28;20458;-49
2021/04/07 04:12:27;;;;;;;6.27;3.60;;;-0.10;99.90;;;;;;4985285;28;20490;-48
2021/04/07 04:14:53;;;;;;;4.43;3.37;;;-0.20;99.90;;;;;;4988367;28;20469;-49
2021/04/07 04:17:20;;;;;;;4.50;3.03;;;-0.10;99.90;;;;;;4984778;28;20493;-49
2021/04/07 04:19:47;;;;;;;5.77;3.00;;;0.00;99.90;;;;;;4988682;28;20474;-48
2021/04/07 04:22:13;;;;;;;3.03;2.67;;;-0.10;99.90;;;;;;4993807;28;20478;-49
2021/04/07 04:24:40;;;;;;;4.23;2.53;;;-0.10;99.90;;;;;;4989572;28;20473;-49
2021/04/07 04:27:07;;;;;;;3.83;2.63;;;-0.10;99.90;;;;;;4985173;28;20457;-49
2021/04/07 04:29:33;;;;;;;5.47;2.30;;;-0.10;99.90;;;;;;4989009;28;20516;-49
2021/04/07 04:32:00;;;;;;;5.13;2.47;;;-0.10;99.90;;;;;;4985531;28;21004;-49
2021/04/07 04:34:27;;;;;;;3.00;2.50;;;-0.10;99.90;;;;;;4986451;28;20463;-49
2021/04/07 04:36:53;;;;;;;3.87;2.70;;;-0.20;99.90;;;;;;4983949;28;20501;-49
2021/04/07 04:39:20;;;;;;;3.97;2.53;;;-0.10;99.90;;;;;;4985243;28;20516;-49
2021/04/07 04:41:46;;;;;;;3.43;2.37;;;-0.20;99.90;;;;;;4985606;28;20501;-49
2021/04/07 04:44:13;;;;;;;4.53;3.00;;;-0.20;99.90;;;;;;4987232;28;20473;-48
2021/04/07 04:46:39;;;;;;;6.27;3.10;;;-0.20;99.90;;;;;;4986941;28;20462;-49
2021/04/07 04:49:06;;;;;;;2.60;2.30;;;-0.20;99.90;;;;;;4984861;28;20474;-49
2021/04/07 04:51:33;;;;;;;5.03;3.00;;;-0.20;99.90;;;;;;4985796;28;20470;-48
2021/04/07 04:54:00;;;;;;;4.40;2.80;;;-0.20;99.90;;;;;;4989008;28;20462;-50
2021/04/07 04:56:26;;;;;;;3.87;3.43;;;-0.20;99.90;;;;;;4989036;28;20888;-49
2021/04/07 04:58:53;;;;;;;4.33;3.00;;;-0.30;99.90;;;;;;4986582;28;20476;-48
2021/04/07 05:01:19;;;;;;;4.67;2.87;;;-0.30;99.90;;;;;;4986986;28;20473;-49
2021/04/07 05:03:46;;;;;;;3.83;2.63;;;-0.30;99.90;;;;;;4987861;28;20509;-48
2021/04/07 05:06:12;;;;;;;6.97;2.70;;;-0.30;99.90;;;;;;4985216;28;20466;-49
2021/04/07 05:08:40;;;;;;;3.13;2.60;;;-0.20;99.90;;;;;;4983751;28;20469;-48
2021/04/07 05:11:07;;;;;;;6.37;2.50;;;-0.10;99.90;;;;;;4984742;28;20516;-48
2021/04/07 05:13:33;;;;;;;3.87;3.17;;;-0.10;99.90;;;;;;4984796;28;20490;-49
2021/04/07 05:16:00;;;;;;;3.67;2.70;;;0.00;99.90;;;;;;4984700;28;20497;-48
2021/04/07 05:18:27;;;;;;;2.93;2.67;;;0.10;99.90;;;;;;4986730;28;20497;-48
2021/04/07 05:20:53;;;;;;;3.43;3.13;;;0.10;99.90;;;;;;4987511;28;20513;-48
2021/04/07 05:23:20;;;;;;;4.90;3.20;;;0.00;99.90;;;;;;5017843;23;20500;-48
2021/04/07 05:25:47;;;;;;;5.67;3.40;;;-0.10;99.90;;;;;;5019462;28;20463;-47
2021/04/07 05:28:14;;;;;;;4.90;3.60;;;-0.10;99.90;;;;;;5030178;28;20448;-47
2021/04/07 05:31:00;;;;;;;4.43;3.50;;;0.10;99.90;;;;;;5021801;28;20479;-47
2021/04/07 05:33:27;;;;;;;10.40;3.70;;;0.20;99.90;;;;;;5020950;28;20483;-47
2021/04/07 05:35:55;;;;;;;5.10;3.80;;;0.30;99.90;;;;;;5027863;28;20487;-47
2021/04/07 05:38:22;;;;;;;7.70;4.53;;;0.20;99.90;;;;;;5031285;28;20492;-47
2021/04/07 05:40:50;;;;;;;4.80;3.70;;;0.10;99.90;;;;;;5029603;28;20546;-48
2021/04/07 05:43:25;;;;;;;5.73;3.87;;;0.20;99.90;;;;;;5099009;27;20579;-47
2021/04/07 05:45:52;;;;;;;4.70;3.57;;;0.10;99.90;;;;;;5084633;28;20449;-47
2021/04/07 05:48:19;;;;;;;4.80;3.97;;;0.20;99.90;;;;;;5072585;28;20519;-48
2021/04/07 05:50:47;;;;;;;3.50;3.13;;;0.30;99.90;;;;;;5087862;28;20451;-47
2021/04/07 05:53:14;;;;;;;8.57;4.60;;;0.40;99.90;;;;;;5073467;28;20452;-47
2021/04/07 05:55:44;;;;;;;5.20;4.30;;;0.50;99.90;;;;;;5070505;28;20204;-46
2021/04/07 05:58:11;;;;;;;6.33;4.30;;;0.30;99.90;;;;;;5080417;28;20450;-47
2021/04/07 06:00:39;;;;;;;8.13;3.80;;;0.10;99.90;;;;;;5086396;28;20532;-47
2021/04/07 06:03:07;;;;;;;6.63;3.93;;;0.10;99.90;;;;;;5087417;28;20481;-47
2021/04/07 06:05:34;;;;;;;6.40;4.70;;;0.20;99.90;;;;;;5086406;28;20509;-47
2021/04/07 06:08:01;;;;;;;5.37;4.30;;;0.40;99.90;;;;;;5076601;28;20943;-47
2021/04/07 06:10:29;;;;;;;6.40;4.70;;;0.40;99.90;;;;;;5086946;28;20801;-47
2021/04/07 06:12:56;;;;;;;7.20;4.10;;;0.40;99.90;;;;;;5080865;28;20488;-47
2021/04/07 06:15:23;;;;;;;5.27;3.80;;;0.60;99.90;;;;;;5075057;28;20455;-47
2021/04/07 06:17:57;;;;;;;4.97;2.97;;;0.30;99.90;;;;;;5081411;28;20473;-46
2021/04/07 06:20:25;;;;;;;5.37;3.87;;;0.30;99.90;;;;;;5083268;28;20459;-47
2021/04/07 06:22:53;;;;;;;6.03;4.37;;;0.50;99.90;;;;;;5075753;28;20469;-47
2021/04/07 06:25:21;;;;;;;5.60;4.37;;;0.50;99.90;;;;;;5086892;28;20445;-47
2021/04/07 06:27:49;;;;;;;6.03;4.13;;;0.60;99.90;;;;;;5073039;28;20439;-47
2021/04/07 06:30:16;;;;;;;6.13;4.00;;;0.70;99.90;;;;;;5067130;28;20597;-47
2021/04/07 06:32:43;;;;;;;5.13;4.10;;;0.60;99.90;;;;;;5083223;28;21099;-46
2021/04/07 06:35:11;;;;;;;6.43;4.37;;;0.60;99.90;;;;;;5085219;28;20511;-47
2021/04/07 06:37:38;;;;;;;10.00;5.45;;;0.60;99.90;;;;;;5065780;28;20434;-47
2021/04/07 06:40:06;;;;;;;6.53;4.57;;;0.50;99.90;;;;;;5081748;28;20205;-47
2021/04/07 06:42:33;;;;;;;5.40;4.00;;;0.70;99.90;;;;;;5086864;28;20476;-47
2021/04/07 06:45:00;;;;;;;6.93;4.30;;;0.70;99.90;;;;;;5086657;28;20447;-47
2021/04/07 06:47:28;;;;;;;6.30;4.10;;;0.50;99.90;;;;;;5068259;28;20459;-48
2021/04/07 06:49:55;;;;;;;6.93;4.13;;;0.30;99.90;;;;;;5066373;28;20477;-48
2021/04/07 06:52:23;;;;;;;5.60;4.43;;;0.50;99.90;;;;;;5066148;28;20577;-48
2021/04/07 06:54:53;;;;;;;6.17;4.27;;;0.70;99.90;;;;;;5052443;28;20558;-48
2021/04/07 06:57:20;;;;;;;8.63;3.93;;;0.70;99.90;;;;;;5070742;28;20907;-48
2021/04/07 06:59:48;;;;;;;6.90;4.53;;;0.80;99.90;;;;;;5072846;28;20461;-48
2021/04/07 07:02:15;;;;;;;10.90;7.50;;;1.00;99.90;;;;;;5072987;28;20943;-48
2021/04/07 07:04:44;;;;;;;30.80;15.63;;;1.10;99.90;;;;;;5072718;28;20502;-48
2021/04/07 07:07:10;;;;;;;12.83;8.27;;;1.20;99.90;;;;;;5056691;28;20505;-47
2021/04/07 07:09:37;;;;;;;10.23;4.90;;;1.20;99.90;;;;;;5052890;28;21166;-48
2021/04/07 07:12:06;;;;;;;7.17;4.90;;;1.30;99.90;;;;;;5069895;28;20479;-48
2021/04/07 07:14:33;;;;;;;9.40;4.20;;;1.40;99.90;;;;;;5062341;28;20463;-47
2021/04/07 07:16:59;;;;;;;7.50;4.10;;;1.30;99.90;;;;;;5065485;28;20454;-47
2021/04/07 07:19:27;;;;;;;5.10;3.37;;;1.10;99.90;;;;;;5072633;28;20457;-47
2021/04/07 07:21:55;;;;;;;6.00;3.87;;;1.20;99.90;;;;;;5065483;28;20443;-47
2021/04/07 07:24:32;;;;;;;5.20;3.93;;;1.60;99.90;;;;;;5072400;28;20474;-48
2021/04/07 07:27:01;;;;;;;6.27;4.10;;;1.80;99.90;;;;;;5072551;28;20451;-47
2021/04/07 07:29:29;;;;;;;7.73;4.10;;;2.10;99.90;;;;;;5072581;28;20450;-47
2021/04/07 07:32:03;;;;;;;7.67;4.60;;;2.10;99.90;;;;;;5060544;28;20529;-47
2021/04/07 07:34:34;;;;;;;4.60;3.90;;;2.20;99.90;;;;;;5072617;28;20465;-47
2021/04/07 07:37:02;;;;;;;6.90;3.63;;;2.20;99.90;;;;;;5072263;28;20975;-47
2021/04/07 07:39:31;;;;;;;5.83;3.70;;;1.80;99.90;;;;;;5072371;28;20457;-47
2021/04/07 07:42:02;;;;;;;5.00;3.77;;;1.70;99.90;;;;;;5069526;28;20459;-47
2021/04/07 07:44:30;;;;;;;5.57;3.47;;;1.60;99.90;;;;;;5052171;28;20970;-47
2021/04/07 07:47:02;;;;;;;6.13;3.70;;;1.90;99.90;;;;;;5052501;28;20447;-47
2021/04/07 07:49:29;;;;;;;4.53;3.60;;;2.10;99.90;;;;;;5062456;28;20459;-47
2021/04/07 07:51:55;;;;;;;4.57;3.27;;;2.10;99.90;;;;;;5058904;28;20477;-47
2021/04/07 07:54:25;;;;;;;3.77;3.07;;;2.10;99.90;;;;;;5052270;28;20929;-48
2021/04/07 07:56:53;;;;;;;5.30;3.60;;;2.30;99.90;;;;;;5051925;28;20448;-47
2021/04/07 07:59:27;;;;;;;3.70;2.70;;;2.00;99.90;;;;;;5053501;28;20459;-47
2021/04/07 08:01:53;;;;;;;4.60;2.80;;;1.70;99.90;;;;;;5053259;28;20945;-47
2021/04/07 08:04:20;;;;;;;3.33;2.67;;;1.70;99.90;;;;;;5055394;28;20474;-48
2021/04/07 08:06:47;;;;;;;3.80;3.10;;;2.40;99.90;;;;;;5060346;28;20844;-48
2021/04/07 08:09:13;;;;;;;3.67;2.80;;;2.90;99.90;;;;;;5053256;28;20453;-48
2021/04/07 08:11:43;;;;;;;3.60;2.60;;;3.20;99.90;;;;;;5070595;28;20479;-47
2021/04/07 08:14:13;;;;;;;3.37;3.07;;;3.00;99.90;;;;;;5071617;28;20471;-48
2021/04/07 08:16:42;;;;;;;2.47;2.27;;;3.80;99.90;;;;;;5060509;28;20451;-48
2021/04/07 08:19:09;;;;;;;3.57;2.67;;;4.10;99.90;;;;;;5051676;28;20517;-47
2021/04/07 08:21:38;;;;;;;3.57;3.27;;;4.50;99.90;;;;;;5051765;28;20445;-48
2021/04/07 08:24:07;;;;;;;4.63;2.93;;;4.10;99.90;;;;;;5053435;28;20468;-48
2021/04/07 08:26:38;;;;;;;3.00;2.67;;;3.70;99.90;;;;;;5071550;28;20518;-48
2021/04/07 08:29:04;;;;;;;5.93;3.10;;;3.30;99.90;;;;;;5054956;28;20935;-47
2021/04/07 08:31:32;;;;;;;3.37;2.90;;;3.40;99.90;;;;;;5051548;28;20497;-48
2021/04/07 08:34:03;;;;;;;4.90;3.00;;;2.90;99.90;;;;;;5051717;28;20470;-48
2021/04/07 08:36:31;;;;;;;43.10;16.50;;;2.70;99.90;;;;;;5070042;28;20455;-48
2021/04/07 08:39:02;;;;;;;5.77;4.13;;;2.10;99.90;;;;;;5070965;28;20459;-48
2021/04/07 08:41:28;;;;;;;3.03;2.43;;;2.10;99.90;;;;;;5071398;28;20471;-47
2021/04/07 08:43:55;;;;;;;4.10;2.73;;;2.30;99.90;;;;;;5070530;28;20493;-48
2021/04/07 08:46:24;;;;;;;4.33;3.63;;;2.60;99.90;;;;;;5071198;28;20447;-47
2021/04/07 08:48:51;;;;;;;2.93;2.30;;;3.00;99.90;;;;;;5070996;28;20487;-48
2021/04/07 08:51:21;;;;;;;4.07;2.70;;;3.20;99.90;;;;;;5070947;28;20446;-47
2021/04/07 08:53:50;;;;;;;5.83;3.30;;;3.50;99.90;;;;;;5070939;28;20482;-47
2021/04/07 08:56:25;;;;;;;4.10;3.30;;;3.60;99.90;;;;;;5051318;28;20463;-47
2021/04/07 08:58:53;;;;;;;2.70;1.97;;;3.60;99.90;;;;;;5051130;28;20502;-47
2021/04/07 09:01:21;;;;;;;3.70;3.30;;;3.10;99.90;;;;;;5055410;28;20838;-47
2021/04/07 09:03:48;;;;;;;3.17;2.70;;;3.00;99.90;;;;;;5071637;28;20475;-48
2021/04/07 09:06:15;;;;;;;4.20;2.73;;;3.00;99.90;;;;;;5068870;28;20448;-48
2021/04/07 09:08:53;;;;;;;3.73;3.03;;;3.40;99.90;;;;;;5070760;28;20451;-49
2021/04/07 09:11:43;;;;;;;3.20;2.70;;;4.00;99.90;;;;;;5070603;28;20459;-49
2021/04/07 09:14:13;;;;;;;3.90;3.20;;;5.60;99.90;;;;;;5064302;28;20983;-49
2021/04/07 09:16:41;;;;;;;3.13;2.83;;;6.60;99.90;;;;;;5059808;28;20450;-49
2021/04/07 09:19:19;;;;;;;2.93;2.10;;;6.20;99.90;;;;;;5065819;28;20447;-49
2021/04/07 09:22:00;;;;;;;3.30;1.60;;;5.80;99.90;;;;;;5051538;28;20439;-47
2021/04/07 09:24:41;;;;;;;1.40;1.30;;;4.70;99.90;;;;;;5064938;28;20469;-47
2021/04/07 09:27:19;;;;;;;3.73;1.70;;;3.90;99.90;;;;;;5065912;28;20847;-47
2021/04/07 09:29:45;;;;;;;2.17;1.50;;;3.00;99.90;;;;;;5066680;28;20452;-47
2021/04/07 09:32:16;;;;;;;3.73;1.53;;;3.30;99.90;;;;;;5070108;28;20486;-47
2021/04/07 09:34:43;;;;;;;2.43;1.43;;;3.50;99.90;;;;;;5063862;28;20470;-48
2021/04/07 09:37:10;;;;;;;2.60;1.60;;;3.50;99.90;;;;;;5069734;28;20817;-47
2021/04/07 09:39:41;;;;;;;2.37;1.40;;;3.50;99.90;;;;;;5050458;28;20454;-47
2021/04/07 09:42:09;;;;;;;2.13;1.60;;;3.80;98.70;;;;;;5064674;28;20831;-47
2021/04/07 09:44:38;;;;;;;3.73;1.30;;;4.00;99.90;;;;;;5053602;28;20487;-48
2021/04/07 09:47:05;;;;;;;1.50;1.40;;;3.90;99.90;;;;;;5059247;28;20793;-47
2021/04/07 09:49:33;;;;;;;2.50;1.27;;;4.30;99.90;;;;;;5070144;28;20504;-48
2021/04/07 09:52:00;;;;;;;4.13;1.90;;;5.40;99.90;;;;;;5070220;28;20524;-47
2021/04/07 09:54:28;;;;;;;2.43;2.23;;;6.00;97.90;;;;;;5066464;28;20478;-47
2021/04/07 09:56:57;;;;;;;1.67;1.50;;;6.50;98.00;;;;;;5050198;28;20862;-47
2021/04/07 09:59:37;;;;;;;2.80;2.07;;;6.20;97.50;;;;;;5050361;28;20451;-47
2021/04/07 10:02:06;;;;;;;2.10;2.00;;;5.60;99.90;;;;;;5050097;28;20448;-47
2021/04/07 10:04:34;;;;;;;5.20;2.23;;;4.40;99.90;;;;;;5068816;28;20468;-47
2021/04/07 10:07:17;;;;;;;2.47;2.20;;;3.60;99.90;;;;;;5070090;28;20454;-46
2021/04/07 10:09:45;;;;;;;3.37;2.47;;;3.60;99.90;;;;;;5064141;28;20993;-47
2021/04/07 10:12:15;;;;;;;2.43;2.03;;;3.30;99.90;;;;;;5063737;28;20476;-47
2021/04/07 10:14:47;;;;;;;2.23;2.00;;;3.30;99.90;;;;;;5056600;28;20474;-48
2021/04/07 10:17:15;;;;;;;2.53;2.03;;;3.70;99.90;;;;;;5050482;28;20458;-47
2021/04/07 10:19:43;;;;;;;3.70;2.10;;;4.10;99.90;;;;;;5062830;28;20817;-47
2021/04/07 10:22:17;;;;;;;2.90;2.30;;;4.40;99.90;;;;;;5069935;28;20454;-47
2021/04/07 10:24:47;;;;;;;3.67;2.10;;;4.60;99.90;;;;;;5060141;28;20867;-46
2021/04/07 10:27:19;;;;;;;3.50;2.13;;;5.00;99.90;;;;;;5067813;28;20802;-47
2021/04/07 10:29:46;;;;;;;2.50;2.30;;;4.90;99.90;;;;;;5069240;28;20828;-46
2021/04/07 10:32:16;;;;;;;2.80;1.90;;;5.10;99.90;;;;;;5073437;28;20485;-46
2021/04/07 10:34:44;;;;;;;2.00;1.80;;;4.70;99.90;;;;;;5073169;28;20515;-46
2021/04/07 10:37:12;;;;;;;3.50;1.87;;;4.30;99.90;;;;;;5073207;28;20448;-46
2021/04/07 10:39:44;;;;;;;1.63;1.53;;;3.90;99.90;;;;;;5073274;28;20448;-47
2021/04/07 10:42:16;;;;;;;2.43;1.70;;;3.90;99.90;;;;;;5064382;28;20949;-47
2021/04/07 10:44:44;;;;;;;2.50;1.70;;;3.50;99.90;;;;;;5068365;28;21070;-47
2021/04/07 10:47:15;;;;;;;2.03;1.70;;;3.70;99.90;;;;;;5069429;28;20539;-47
2021/04/07 10:49:54;;;;;;;1.87;1.70;;;3.80;99.90;;;;;;5061186;28;20446;-47
2021/04/07 10:52:34;;;;;;;2.80;1.70;;;4.10;99.90;;;;;;5064165;28;20886;-47
2021/04/07 10:55:03;;;;;;;1.97;1.77;;;4.40;99.90;;;;;;5067646;28;20953;-47
2021/04/07 10:57:31;;;;;;;3.00;1.43;;;4.20;99.90;;;;;;5060795;28;20892;-46
2021/04/07 10:59:59;;;;;;;2.50;1.60;;;4.30;99.90;;;;;;5052626;28;20815;-47
2021/04/07 11:02:25;;;;;;;3.03;2.00;;;4.40;99.90;;;;;;5060068;28;21141;-46
2021/04/07 11:04:52;;;;;;;2.40;2.20;;;4.50;99.90;;;;;;5070845;28;20492;-47
2021/04/07 11:07:19;;;;;;;2.00;1.73;;;5.00;99.90;;;;;;5068245;28;20453;-47
2021/04/07 11:09:49;;;;;;;2.13;1.67;;;5.20;99.90;;;;;;5052271;28;20462;-47
2021/04/07 11:12:17;;;;;;;2.30;2.10;;;5.40;99.90;;;;;;5055116;28;20965;-48
2021/04/07 11:14:51;;;;;;;8.23;2.50;;;5.30;99.90;;;;;;5053498;28;20474;-46
2021/04/07 11:17:19;;;;;;;3.53;2.10;;;5.10;99.90;;;;;;5065500;28;20966;-47
2021/04/07 11:19:46;;;;;;;2.20;2.00;;;4.70;99.90;;;;;;5070983;28;20461;-47
2021/04/07 11:22:13;;;;;;;1.83;1.70;;;4.20;99.90;;;;;;5069660;28;20463;-47
2021/04/07 11:24:40;;;;;;;1.80;1.70;;;4.00;99.90;;;;;;5045469;22;20526;-49
2021/04/07 11:27:08;;;;;;;1.77;1.67;;;4.00;99.90;;;;;;5012428;28;20446;-49
2021/04/07 11:29:36;;;;;;;3.30;1.80;;;4.00;99.90;;;;;;4998325;28;20460;-49
2021/04/07 11:32:03;;;;;;;2.00;1.70;;;4.00;99.90;;;;;;5013269;28;20492;-49
2021/04/07 11:34:34;;;;;;;2.33;1.87;;;4.00;99.90;;;;;;5026575;28;20767;-48
2021/04/07 11:37:11;;;;;;;2.90;2.40;;;4.30;99.90;;;;;;5033052;28;20556;-48
2021/04/07 11:39:43;;;;;;;2.90;2.57;;;4.70;99.90;;;;;;5032147;28;20465;-48
2021/04/07 11:42:17;;;;;;;3.60;2.20;;;5.00;99.90;;;;;;5031644;28;20455;-49
2021/04/07 11:44:43;;;;;;;2.53;2.30;;;5.30;99.90;;;;;;5025301;28;20554;-48
2021/04/07 11:47:10;;;;;;;2.90;2.23;;;5.30;99.90;;;;;;5032513;28;20964;-49
2021/04/07 11:49:39;;;;;;;3.07;2.47;;;5.30;99.90;;;;;;5032832;28;20455;-49
2021/04/07 11:52:06;;;;;;;2.53;2.00;;;5.40;99.90;;;;;;5032068;28;20480;-52
2021/04/07 11:54:33;;;;;;;2.20;2.00;;;5.40;99.90;;;;;;5029633;28;20472;-49
2021/04/07 11:56:59;;;;;;;3.87;2.37;;;5.50;99.90;;;;;;5031607;28;20450;-49
2021/04/07 11:59:26;;;;;;;1.93;1.83;;;5.10;99.90;;;;;;5032319;28;20455;-48
2021/04/07 12:01:55;;;;;;;1.80;1.70;;;4.90;99.90;;;;;;5031676;28;20451;-49
2021/04/07 12:04:24;;;;;;;2.30;2.10;;;4.80;99.90;;;;;;5018301;28;20470;-48
2021/04/07 12:06:51;;;;;;;3.23;2.40;;;4.70;99.90;;;;;;5034206;28;20943;-48
2021/04/07 12:09:18;;;;;;;3.00;2.23;;;4.90;99.90;;;;;;5032350;28;20517;-49
2021/04/07 12:11:44;;;;;;;2.23;2.00;;;4.80;99.90;;;;;;5031949;28;20455;-49
2021/04/07 12:14:11;;;;;;;3.77;2.17;;;4.70;99.90;;;;;;5027716;28;20502;-49
2021/04/07 12:16:38;;;;;;;2.17;1.53;;;4.60;99.90;;;;;;5032267;28;20476;-48
2021/04/07 12:19:05;;;;;;;2.93;2.00;;;4.30;99.90;;;;;;5031865;28;20475;-51
2021/04/07 12:21:32;;;;;;;2.30;2.00;;;4.60;99.90;;;;;;5032130;28;20460;-49
2021/04/07 12:24:01;;;;;;;1.67;1.57;;;4.70;99.90;;;;;;5030637;28;20485;-50
2021/04/07 12:26:27;;;;;;;3.63;2.50;;;4.70;99.90;;;;;;5031602;28;21035;-50
2021/04/07 12:28:56;;;;;;;3.03;2.10;;;4.80;99.90;;;;;;5031438;28;20460;-49
2021/04/07 12:31:23;;;;;;;2.33;1.97;;;4.90;99.90;;;;;;5031498;28;20456;-50
2021/04/07 12:33:52;;;;;;;2.40;1.80;;;5.00;99.90;;;;;;5030484;28;20493;-50
2021/04/07 12:36:19;;;;;;;1.90;1.50;;;4.80;99.90;;;;;;5031613;28;20456;-50
2021/04/07 12:38:45;;;;;;;2.03;1.80;;;4.50;99.90;;;;;;5031452;28;21058;-50
2021/04/07 12:41:22;;;;;;;1.60;1.40;;;4.60;99.90;;;;;;5031562;28;20456;-50
2021/04/07 12:43:49;;;;;;;1.80;1.70;;;5.00;99.90;;;;;;5021184;28;20469;-49
2021/04/07 12:46:17;;;;;;;2.07;1.83;;;5.30;99.90;;;;;;5031605;28;20454;-49
2021/04/07 12:48:47;;;;;;;1.80;1.70;;;5.60;99.90;;;;;;5033532;28;20452;-50
2021/04/07 12:51:13;;;;;;;2.03;1.93;;;5.40;98.80;;;;;;5031036;28;20464;-49
2021/04/07 12:53:46;;;;;;;2.40;1.90;;;5.50;99.90;;;;;;5030084;28;20498;-50
2021/04/07 12:57:07;;;;;;;2.63;1.90;;;5.50;99.90;;;;;;5031553;28;20455;-49
2021/04/07 12:59:35;;;;;;;2.20;2.00;;;5.10;99.90;;;;;;5031314;28;20526;-49
2021/04/07 13:02:01;;;;;;;2.83;2.00;;;4.70;99.90;;;;;;5029827;28;20447;-49